Time;durP1;ratioP1;P1;durP2;ratioP2;P2;SDS_P1;SDS_P2;PMS_P1;PMS_P2;Temp;Humidity;BMP_temperature;BMP_pressure;BME280_temperature;BME280_humidity;BME280_pressure;Samples;Min_cycle;Max_cycle;Signal;HPM_P1;HPM_P2
2023/01/27 00:00:49;;;;;;;3.67;3.23;;;;;;;4.33;100.00;99452.09;5107648;28;20209;-76
2023/01/27 00:03:16;;;;;;;0.47;0.47;;;;;;;4.24;100.00;99431.34;5101405;28;20263;-76
2023/01/27 00:05:43;;;;;;;0.77;0.77;;;;;;;4.40;100.00;99459.16;5090751;28;20205;-76
2023/01/27 00:08:10;;;;;;;4.27;3.90;;;;;;;4.43;100.00;99470.38;5090145;28;20202;-75
2023/01/27 00:10:38;;;;;;;0.70;0.70;;;;;;;4.36;100.00;99450.50;5090669;28;20210;-75
2023/01/27 00:15:50;;;;;;;0.60;0.60;;;;;;;4.44;100.00;99459.31;5097953;28;20339;-75
2023/01/27 00:18:20;;;;;;;0.70;0.70;;;;;;;4.61;100.00;99449.50;5099536;28;20259;-77
2023/01/27 00:26:18;;;;;;;0.80;0.80;;;;;;;4.36;100.00;99432.53;5114134;28;20204;-76
2023/01/27 00:28:47;;;;;;;1.07;1.07;;;;;;;4.39;100.00;99444.56;5112873;28;20254;-74
2023/01/27 00:34:07;;;;;;;1.70;1.70;;;;;;;4.31;100.00;99441.81;5106281;28;20322;-76
2023/01/27 00:36:35;;;;;;;0.90;0.90;;;;;;;4.36;100.00;99437.66;5102754;28;20204;-75
2023/01/27 00:39:01;;;;;;;0.70;0.70;;;;;;;4.40;100.00;99439.50;5097622;28;20202;-76
2023/01/27 00:41:28;;;;;;;0.70;0.70;;;;;;;4.29;100.00;99435.75;5097890;28;20574;-76
2023/01/27 00:43:56;;;;;;;0.73;0.73;;;;;;;4.15;100.00;99426.78;5116152;28;20204;-76
2023/01/27 00:46:25;;;;;;;2.00;1.43;;;;;;;4.32;100.00;99440.97;5116497;28;20209;-76
2023/01/27 00:48:53;;;;;;;0.70;0.70;;;;;;;4.28;100.00;99434.00;5117690;28;20299;-76
2023/01/27 00:51:20;;;;;;;2.03;1.93;;;;;;;4.15;100.00;99428.47;5114613;28;20200;-76
2023/01/27 00:53:47;;;;;;;0.60;0.60;;;;;;;4.10;100.00;99407.84;5109461;28;20692;-75
2023/01/27 00:56:15;;;;;;;0.73;0.73;;;;;;;4.14;100.00;99430.16;5093496;28;20612;-76
2023/01/27 00:58:41;;;;;;;0.70;0.70;;;;;;;4.08;100.00;99427.44;5093795;28;20201;-76
2023/01/27 01:01:13;;;;;;;0.50;0.50;;;;;;;4.09;100.00;99415.47;5093814;28;20202;-75
2023/01/27 01:03:40;;;;;;;0.83;0.83;;;;;;;4.11;100.00;99430.06;5093856;28;20288;-77
2023/01/27 01:06:09;;;;;;;0.80;0.80;;;;;;;4.16;100.00;99425.09;5093657;28;20539;-76
2023/01/27 01:08:37;;;;;;;0.80;0.80;;;;;;;4.19;100.00;99423.50;5093445;28;20624;-76
2023/01/27 01:11:05;;;;;;;0.80;0.80;;;;;;;4.21;100.00;99423.53;5093849;28;20209;-75
2023/01/27 01:13:32;;;;;;;0.80;0.80;;;;;;;4.03;100.00;99416.19;5110431;28;20217;-75
2023/01/27 01:16:05;;;;;;;0.80;0.80;;;;;;;3.64;100.00;99333.78;5113666;28;20197;-75
2023/01/27 01:18:33;;;;;;;0.60;0.60;;;;;;;4.13;100.00;99423.31;5113586;28;20209;-76
2023/01/27 01:21:00;;;;;;;0.87;0.87;;;;;;;4.14;100.00;99424.19;5095982;28;20653;-76
2023/01/27 01:23:27;;;;;;;0.70;0.70;;;;;;;4.06;100.00;99431.66;5093105;28;20194;-76
2023/01/27 01:25:55;;;;;;;1.87;1.77;;;;;;;4.06;100.00;99444.47;5093070;28;20653;-75
2023/01/27 01:28:22;;;;;;;1.07;1.07;;;;;;;4.07;100.00;99453.88;5099733;28;20190;-75
2023/01/27 01:30:49;;;;;;;0.73;0.73;;;;;;;4.05;100.00;99458.13;5093449;28;20221;-75
2023/01/27 01:33:16;;;;;;;0.50;0.50;;;;;;;4.02;100.00;99428.94;5060366;28;20198;-76
2023/01/27 01:35:45;;;;;;;0.70;0.70;;;;;;;4.25;100.00;99458.69;5094252;28;20234;-76
2023/01/27 01:38:11;;;;;;;0.60;0.60;;;;;;;4.15;100.00;99434.47;5110662;28;20201;-76
2023/01/27 01:40:41;;;;;;;0.60;0.60;;;;;;;4.19;100.00;99431.19;5094993;28;20297;-75
2023/01/27 01:43:13;;;;;;;0.73;0.73;;;;;;;4.41;100.00;99461.78;5113283;28;20201;-75
2023/01/27 01:45:52;;;;;;;0.70;0.70;;;;;;;4.48;100.00;99455.13;5102301;28;20237;-76
2023/01/27 01:48:23;;;;;;;1.20;1.10;;;;;;;4.49;100.00;99444.03;5092472;28;20632;-76
2023/01/27 01:50:54;;;;;;;0.90;0.90;;;;;;;4.25;100.00;99408.25;5092669;28;20198;-75
2023/01/27 01:53:28;;;;;;;1.30;1.30;;;;;;;4.31;100.00;99429.00;5106341;28;20600;-75
2023/01/27 01:55:55;;;;;;;0.93;0.93;;;;;;;4.23;100.00;99388.53;5096082;28;20283;-76
2023/01/27 01:58:23;;;;;;;0.80;0.80;;;;;;;4.41;100.00;99410.47;5092541;28;20271;-75
2023/01/27 02:00:50;;;;;;;0.60;0.60;;;;;;;4.42;100.00;99411.34;5093315;28;20664;-76
2023/01/27 02:03:16;;;;;;;0.70;0.70;;;;;;;4.31;100.00;99393.06;5041597;28;20271;-76
2023/01/27 02:05:45;;;;;;;0.60;0.60;;;;;;;4.33;100.00;99386.28;5092278;28;20673;-76
2023/01/27 02:08:21;;;;;;;0.70;0.70;;;;;;;4.38;100.00;99402.69;5100341;28;20674;-75
2023/01/27 02:10:48;;;;;;;0.90;0.90;;;;;;;4.17;100.00;99384.09;5058736;28;20284;-74
2023/01/27 02:13:15;;;;;;;0.87;0.87;;;;;;;4.28;100.00;99403.22;5092165;28;20210;-75
2023/01/27 02:15:42;;;;;;;0.63;0.63;;;;;;;4.31;100.00;99408.47;5091987;28;20647;-76
2023/01/27 02:18:09;;;;;;;0.60;0.60;;;;;;;4.18;100.00;99406.34;5092761;28;20206;-75
2023/01/27 02:20:41;;;;;;;0.70;0.70;;;;;;;4.35;100.00;99405.13;5092132;28;20202;-76
2023/01/27 02:23:19;;;;;;;0.70;0.70;;;;;;;4.36;100.00;99414.59;5057342;28;20242;-76
2023/01/27 02:25:54;;;;;;;1.00;1.00;;;;;;;4.49;100.00;99416.66;5058041;28;20258;-76
2023/01/27 02:28:21;;;;;;;1.17;1.17;;;;;;;4.46;100.00;99410.56;5093236;28;20201;-78
2023/01/27 02:30:48;;;;;;;0.60;0.60;;;;;;;4.35;100.00;99394.03;5092946;28;20202;-75
2023/01/27 02:33:16;;;;;;;0.80;0.80;;;;;;;4.53;100.00;99403.94;5092801;28;20632;-77
2023/01/27 02:35:50;;;;;;;0.60;0.60;;;;;;;4.52;100.00;99407.31;5102714;28;20683;-77
2023/01/27 02:38:18;;;;;;;0.63;0.63;;;;;;;4.44;100.00;99378.88;5091711;28;20221;-76
2023/01/27 02:40:48;;;;;;;0.70;0.70;;;;;;;4.52;100.00;99389.34;5108225;28;20210;-77
2023/01/27 02:43:16;;;;;;;0.70;0.70;;;;;;;4.44;100.00;99379.75;5112061;28;20201;-76
2023/01/27 02:45:45;;;;;;;0.70;0.70;;;;;;;4.45;100.00;99368.66;5111523;28;20542;-76
2023/01/27 02:48:13;;;;;;;0.97;0.97;;;;;;;4.41;100.00;99359.13;5111771;28;20258;-77
2023/01/27 02:50:40;;;;;;;0.70;0.70;;;;;;;4.24;100.00;99333.84;5111955;28;20193;-76
2023/01/27 02:53:07;;;;;;;0.70;0.70;;;;;;;4.24;100.00;99338.97;5042152;28;20635;-76
2023/01/27 02:55:34;;;;;;;2.40;2.30;;;;;;;4.13;100.00;99328.41;5091558;28;20230;-76
2023/01/27 02:58:00;;;;;;;0.80;0.80;;;;;;;4.21;100.00;99350.00;5091446;28;20210;-76
2023/01/27 03:00:29;;;;;;;2.23;2.13;;;;;;;4.30;100.00;99337.44;5091586;28;20206;-76
2023/01/27 03:02:55;;;;;;;1.27;1.27;;;;;;;4.16;100.00;99356.72;5091326;28;20267;-74
2023/01/27 03:05:22;;;;;;;1.67;1.67;;;;;;;4.16;100.00;99356.72;5104883;28;20197;-76
2023/01/27 03:07:49;;;;;;;0.70;0.70;;;;;;;4.06;100.00;99339.31;5072872;28;20202;-75
2023/01/27 03:10:16;;;;;;;0.70;0.70;;;;;;;3.81;100.00;99318.94;5091176;28;20209;-74
2023/01/27 03:12:44;;;;;;;0.83;0.83;;;;;;;4.07;100.00;99341.03;5091315;28;20198;-74
2023/01/27 03:18:09;;;;;;;0.70;0.70;;;;;;;4.00;100.00;99339.13;5103194;28;20212;-76
2023/01/27 03:20:36;;;;;;;0.97;0.97;;;;;;;3.88;100.00;99343.91;5095366;28;20581;-74
2023/01/27 03:23:03;;;;;;;0.70;0.70;;;;;;;3.91;100.00;99344.00;5104190;28;20250;-74
2023/01/27 03:25:30;;;;;;;0.70;0.70;;;;;;;3.48;100.00;99242.78;5111035;28;20201;-75
2023/01/27 03:27:57;;;;;;;0.80;0.80;;;;;;;3.78;100.00;99316.28;5108619;28;20189;-75
2023/01/27 03:30:24;;;;;;;1.17;1.17;;;;;;;4.06;100.00;99343.56;5101718;28;20198;-74
2023/01/27 03:32:51;;;;;;;0.70;0.70;;;;;;;4.00;100.00;99349.38;5094488;28;20207;-76
2023/01/27 03:35:19;;;;;;;0.60;0.60;;;;;;;4.09;100.00;99349.66;5095703;28;20287;-75
2023/01/27 03:46:19;;;;;;;0.50;0.50;;;;;;;3.94;100.00;99360.34;5111407;28;20216;-75
2023/01/27 03:48:50;;;;;;;2.60;2.40;;;;;;;3.95;100.00;99345.84;5102358;28;20209;-75
2023/01/27 03:51:19;;;;;;;0.60;0.60;;;;;;;3.96;100.00;99373.19;5102710;28;20228;-75
2023/01/27 03:53:46;;;;;;;1.00;1.00;;;;;;;3.93;100.00;99373.97;5110439;28;20667;-75
2023/01/27 03:56:14;;;;;;;1.07;1.07;;;;;;;3.80;100.00;99319.75;5110497;28;20646;-74
2023/01/27 03:58:41;;;;;;;0.63;0.63;;;;;;;3.96;100.00;99355.25;5096211;28;20209;-74
2023/01/27 04:01:13;;;;;;;0.60;0.60;;;;;;;3.95;100.00;99335.56;5096219;28;20547;-76
2023/01/27 04:09:14;;;;;;;0.90;0.90;;;;;;;3.98;100.00;99333.09;5114976;28;20204;-74
2023/01/27 04:11:54;;;;;;;1.17;1.17;;;;;;;3.96;100.00;99321.91;5106990;28;20223;-74
2023/01/27 04:14:23;;;;;;;1.53;1.53;;;;;;;3.91;100.00;99313.22;5048749;28;20224;-75
2023/01/27 04:16:51;;;;;;;0.73;0.73;;;;;;;3.81;100.00;99334.31;5094490;28;20232;-76
2023/01/27 04:19:18;;;;;;;0.70;0.70;;;;;;;3.95;100.00;99371.47;5100561;28;20202;-75
2023/01/27 04:21:47;;;;;;;0.97;0.97;;;;;;;3.94;100.00;99367.16;5115196;28;20194;-74
2023/01/27 04:24:23;;;;;;;0.77;0.77;;;;;;;3.98;100.00;99377.56;5114750;28;20247;-76
2023/01/27 04:26:53;;;;;;;0.80;0.80;;;;;;;4.05;100.00;99373.47;5114871;28;20208;-76
2023/01/27 04:29:20;;;;;;;0.60;0.60;;;;;;;3.85;100.00;99352.38;5074226;28;20202;-75
2023/01/27 04:31:47;;;;;;;2.10;2.00;;;;;;;4.04;100.00;99361.47;5094396;28;20198;-76
2023/01/27 04:34:14;;;;;;;0.60;0.60;;;;;;;4.07;100.00;99361.56;5104147;28;20225;-75
2023/01/27 04:36:42;;;;;;;0.70;0.70;;;;;;;4.05;100.00;99360.66;5108300;28;20225;-75
2023/01/27 04:39:11;;;;;;;0.60;0.60;;;;;;;4.10;100.00;99356.53;5113732;28;20205;-75
2023/01/27 04:41:37;;;;;;;0.53;0.53;;;;;;;4.04;100.00;99360.59;5094401;28;20202;-76
2023/01/27 04:44:05;;;;;;;0.80;0.80;;;;;;;3.80;100.00;99309.50;5094016;28;20695;-75
2023/01/27 04:46:33;;;;;;;0.70;0.70;;;;;;;4.02;100.00;99349.44;5094000;28;20205;-76
2023/01/27 04:48:59;;;;;;;0.50;0.50;;;;;;;4.05;100.00;99350.41;5093654;28;20293;-75
2023/01/27 04:51:27;;;;;;;1.03;1.03;;;;;;;4.04;100.00;99351.22;5043501;28;20217;-77
2023/01/27 04:53:53;;;;;;;0.57;0.57;;;;;;;4.06;100.00;99352.16;5114135;28;20232;-74
2023/01/27 04:56:27;;;;;;;0.70;0.70;;;;;;;3.99;100.00;99337.41;5113925;28;20233;-75
2023/01/27 04:58:57;;;;;;;0.63;0.63;;;;;;;4.00;100.00;99339.13;5114349;28;20541;-76
2023/01/27 05:01:24;;;;;;;0.60;0.60;;;;;;;4.16;100.00;99360.97;5114341;28;20204;-76
2023/01/27 05:03:51;;;;;;;0.60;0.60;;;;;;;4.17;100.00;99358.47;5061438;28;20309;-75
2023/01/27 05:06:18;;;;;;;0.60;0.60;;;;;;;3.88;100.00;99325.97;5113807;28;20202;-76
2023/01/27 05:08:44;;;;;;;0.50;0.50;;;;;;;4.12;100.00;99348.88;5113494;28;20355;-75
2023/01/27 05:11:12;;;;;;;2.30;2.20;;;;;;;4.11;100.00;99347.13;5113339;28;20680;-75
2023/01/27 05:13:40;;;;;;;0.90;0.90;;;;;;;4.18;100.00;99343.91;5111501;28;20202;-76
2023/01/27 05:16:10;;;;;;;0.73;0.73;;;;;;;4.23;100.00;99356.06;5109638;28;20253;-75
2023/01/27 05:18:37;;;;;;;0.50;0.50;;;;;;;4.14;100.00;99345.53;5057472;28;20206;-76
2023/01/27 05:21:05;;;;;;;0.50;0.50;;;;;;;3.96;100.00;99322.78;5113045;28;20600;-75
2023/01/27 05:23:36;;;;;;;0.80;0.80;;;;;;;4.18;100.00;99352.47;5113885;28;20262;-75
2023/01/27 05:26:11;;;;;;;0.70;0.70;;;;;;;4.25;100.00;99351.81;5062128;28;20209;-76
2023/01/27 05:28:41;;;;;;;0.70;0.70;;;;;;;4.29;100.00;99352.78;5103838;28;20965;-76
2023/01/27 05:31:10;;;;;;;0.50;0.50;;;;;;;4.21;100.00;99328.63;5092133;28;20198;-75
2023/01/27 05:33:38;;;;;;;0.60;0.60;;;;;;;4.25;100.00;99341.56;5092714;28;20675;-75
2023/01/27 05:36:07;;;;;;;0.70;0.70;;;;;;;4.31;100.00;99336.63;5091526;28;20229;-75
2023/01/27 05:38:34;;;;;;;2.47;2.30;;;;;;;4.16;100.00;99341.31;5092349;28;20202;-75
2023/01/27 05:41:02;;;;;;;0.60;0.60;;;;;;;3.53;100.00;99262.56;5091884;28;20194;-73
2023/01/27 05:43:30;;;;;;;0.80;0.80;;;;;;;4.10;100.00;99363.38;5091675;28;20194;-74
2023/01/27 05:46:09;;;;;;;0.90;0.90;;;;;;;4.23;100.00;99368.88;5092321;28;20657;-75
2023/01/27 05:48:37;;;;;;;0.80;0.80;;;;;;;4.14;100.00;99366.03;5103085;28;20210;-75
2023/01/27 05:51:05;;;;;;;0.60;0.60;;;;;;;4.06;100.00;99362.41;5100807;28;20194;-74
2023/01/27 05:53:32;;;;;;;1.23;1.23;;;;;;;4.09;100.00;99359.94;5094197;28;20705;-75
2023/01/27 05:55:59;;;;;;;0.60;0.60;;;;;;;4.11;100.00;99358.25;5101714;28;20955;-76
2023/01/27 05:58:26;;;;;;;0.70;0.70;;;;;;;3.91;100.00;99326.06;5101119;28;20202;-75
2023/01/27 06:00:54;;;;;;;0.60;0.60;;;;;;;3.97;100.00;99359.56;5102049;28;20251;-75
2023/01/27 06:03:22;;;;;;;0.70;0.70;;;;;;;3.80;100.00;99346.25;5101860;28;20206;-74
2023/01/27 06:05:51;;;;;;;0.90;0.90;;;;;;;3.70;100.00;99341.69;5099713;28;20225;-75
2023/01/27 06:08:18;;;;;;;0.60;0.60;;;;;;;3.82;100.00;99364.22;5099483;28;20664;-77
2023/01/27 06:10:45;;;;;;;1.10;1.10;;;;;;;3.64;100.00;99344.03;5101001;28;20201;-74
2023/01/27 06:13:12;;;;;;;0.60;0.60;;;;;;;3.89;100.00;99372.16;5101535;28;20573;-76
2023/01/27 06:15:41;;;;;;;0.70;0.70;;;;;;;3.78;100.00;99364.97;5099898;28;20304;-78
2023/01/27 06:18:08;;;;;;;0.60;0.60;;;;;;;3.67;100.00;99377.47;5039691;28;20693;-76
2023/01/27 06:20:37;;;;;;;0.63;0.63;;;;;;;3.76;100.00;99375.19;5095635;28;20671;-75
2023/01/27 06:23:04;;;;;;;0.80;0.80;;;;;;;3.61;100.00;99350.75;5098374;28;20208;-75
2023/01/27 06:25:31;;;;;;;0.70;0.70;;;;;;;3.56;100.00;99345.53;5104250;28;20217;-72
2023/01/27 06:27:58;;;;;;;0.90;0.90;;;;;;;3.55;100.00;99348.91;5094676;28;20198;-75
2023/01/27 06:30:25;;;;;;;0.60;0.60;;;;;;;3.71;100.00;99391.25;5091673;28;20206;-75
2023/01/27 06:32:51;;;;;;;1.00;1.00;;;;;;;3.47;100.00;99366.59;5040964;28;20285;-75
2023/01/27 06:35:18;;;;;;;0.80;0.80;;;;;;;3.47;100.00;99366.59;5091453;28;20238;-77
2023/01/27 06:37:48;;;;;;;0.63;0.63;;;;;;;3.60;100.00;99361.84;5096937;28;20210;-75
2023/01/27 06:40:15;;;;;;;0.73;0.73;;;;;;;3.37;100.00;99364.56;5100207;28;20208;-76
2023/01/27 06:42:43;;;;;;;0.87;0.87;;;;;;;3.59;100.00;99383.19;5112162;28;20250;-77
2023/01/27 06:45:10;;;;;;;1.13;1.13;;;;;;;3.54;100.00;99388.16;5111862;28;20240;-75
2023/01/27 06:47:37;;;;;;;0.83;0.83;;;;;;;3.15;100.00;99316.03;5105572;28;20201;-78
2023/01/27 06:50:05;;;;;;;9.53;2.10;;;;;;;3.54;100.00;99383.03;5059433;28;20212;-78
2023/01/27 06:52:31;;;;;;;0.60;0.60;;;;;;;3.56;100.00;99370.28;5096125;28;20198;-76
2023/01/27 06:55:00;;;;;;;3.47;3.27;;;;;;;3.67;100.00;99368.91;5102447;28;20684;-75
2023/01/27 06:57:26;;;;;;;2.80;1.27;;;;;;;3.53;100.00;99370.19;5091287;28;20233;-77
2023/01/27 06:59:53;;;;;;;0.80;0.80;;;;;;;3.46;100.00;99377.66;5060369;28;20210;-76
2023/01/27 07:02:20;;;;;;;0.67;0.67;;;;;;;3.69;100.00;99380.06;5091562;28;20718;-75
2023/01/27 07:04:47;;;;;;;0.60;0.60;;;;;;;3.57;100.00;99377.16;5099895;28;20289;-80
2023/01/27 07:07:13;;;;;;;0.70;0.70;;;;;;;3.62;100.00;99380.69;5095673;28;20213;-76
2023/01/27 07:09:40;;;;;;;0.63;0.63;;;;;;;3.56;100.00;99383.97;5093594;28;20198;-73
2023/01/27 07:12:08;;;;;;;0.70;0.70;;;;;;;3.60;100.00;99387.47;5061175;28;20201;-73
2023/01/27 07:14:35;;;;;;;6.67;6.20;;;;;;;3.50;100.00;99370.94;5100259;28;20231;-73
2023/01/27 07:17:02;;;;;;;0.50;0.50;;;;;;;3.69;100.00;99398.88;5096084;28;20230;-74
2023/01/27 07:19:28;;;;;;;0.97;0.97;;;;;;;3.57;100.00;99401.06;5096036;28;20198;-73
2023/01/27 07:21:55;;;;;;;0.70;0.70;;;;;;;3.44;100.00;99371.63;5092460;28;20198;-73
2023/01/27 07:24:22;;;;;;;1.50;1.20;;;;;;;3.64;100.00;99387.59;5102481;28;20204;-73
2023/01/27 07:26:49;;;;;;;0.60;0.60;;;;;;;3.46;100.00;99369.97;5094128;28;20198;-74
2023/01/27 07:29:17;;;;;;;0.83;0.83;;;;;;;3.61;100.00;99399.44;5093311;28;20206;-73
2023/01/27 07:31:44;;;;;;;0.80;0.80;;;;;;;3.48;100.00;99393.09;5098331;28;20591;-73
2023/01/27 07:34:11;;;;;;;0.53;0.53;;;;;;;3.47;100.00;99402.47;5093011;28;20270;-73
2023/01/27 07:36:37;;;;;;;0.60;0.60;;;;;;;3.42;100.00;99391.19;5041066;28;20226;-73
2023/01/27 07:39:04;;;;;;;0.50;0.50;;;;;;;3.28;100.00;99366.81;5051835;28;20581;-73
2023/01/27 07:41:31;;;;;;;1.50;1.50;;;;;;;3.41;100.00;99404.84;5093221;28;20641;-74
2023/01/27 07:43:58;;;;;;;0.60;0.60;;;;;;;3.53;100.00;99411.19;5092885;28;20205;-74
2023/01/27 07:46:26;;;;;;;0.70;0.70;;;;;;;2.55;100.00;99257.72;5103173;28;20197;-74
2023/01/27 07:48:53;;;;;;;0.60;0.60;;;;;;;3.41;100.00;99411.66;5090126;28;20207;-75
2023/01/27 07:51:20;;;;;;;0.60;0.60;;;;;;;3.41;100.00;99403.97;5092401;28;20572;-73
2023/01/27 07:53:46;;;;;;;0.60;0.60;;;;;;;3.48;100.00;99404.22;5096251;28;20643;-76
2023/01/27 07:56:13;;;;;;;0.50;0.50;;;;;;;3.46;100.00;99410.97;5097943;28;20271;-74
2023/01/27 07:58:40;;;;;;;0.90;0.90;;;;;;;3.46;100.00;99416.09;5058393;28;20585;-76
2023/01/27 08:01:08;;;;;;;0.80;0.80;;;;;;;3.42;100.00;99416.81;5091343;28;20201;-74
2023/01/27 08:03:36;;;;;;;0.70;0.70;;;;;;;3.53;100.00;99411.19;5090273;28;20201;-76
2023/01/27 08:06:06;;;;;;;0.80;0.80;;;;;;;3.29;100.00;99390.75;5092735;28;20725;-75
2023/01/27 08:08:34;;;;;;;1.00;1.00;;;;;;;3.19;100.00;99412.63;5090146;28;20301;-75
2023/01/27 08:11:01;;;;;;;0.90;0.90;;;;;;;3.21;100.00;99382.81;5092567;28;20201;-77
2023/01/27 08:13:28;;;;;;;0.90;0.90;;;;;;;3.37;100.00;99399.56;5089985;28;20669;-75
2023/01/27 08:15:59;;;;;;;0.50;0.50;;;;;;;3.25;100.00;99392.34;5090706;28;20198;-75
2023/01/27 08:18:26;;;;;;;1.10;1.10;;;;;;;3.17;100.00;99383.56;5100415;28;20202;-76
2023/01/27 08:20:54;;;;;;;0.70;0.70;;;;;;;3.31;100.00;99400.25;5090153;28;20684;-77
2023/01/27 08:23:22;;;;;;;0.60;0.60;;;;;;;3.20;100.00;99375.97;5090145;28;20229;-77
2023/01/27 08:25:50;;;;;;;0.80;0.80;;;;;;;3.29;100.00;99385.63;5090522;28;20215;-75
2023/01/27 08:28:17;;;;;;;0.97;0.97;;;;;;;3.18;100.00;99381.84;5106919;28;20652;-75
2023/01/27 08:30:44;;;;;;;0.80;0.80;;;;;;;3.13;100.00;99363.78;5058913;28;20580;-79
2023/01/27 08:33:11;;;;;;;0.70;0.70;;;;;;;3.31;100.00;99379.75;5105013;28;20557;-79
2023/01/27 08:35:41;;;;;;;0.67;0.67;;;;;;;3.30;100.00;99360.06;5091497;28;20696;-76
2023/01/27 08:38:09;;;;;;;0.60;0.60;;;;;;;3.38;100.00;99386.81;5093595;28;20232;-81
2023/01/27 08:40:36;;;;;;;0.60;0.60;;;;;;;3.50;100.00;99361.56;5094400;28;20263;-79
2023/01/27 08:43:03;;;;;;;0.70;0.70;;;;;;;3.47;100.00;99378.53;5102772;28;20253;-80
2023/01/27 08:45:30;;;;;;;5.50;4.93;;;;;;;3.39;100.00;99387.66;5093274;28;20206;-78
2023/01/27 08:47:56;;;;;;;0.60;0.60;;;;;;;3.43;100.00;99387.81;5103508;28;20266;-80
2023/01/27 08:50:23;;;;;;;0.80;0.80;;;;;;;3.50;100.00;99359.00;5097639;28;20206;-76
2023/01/27 08:52:50;;;;;;;0.73;0.73;;;;;;;3.23;100.00;99383.75;5094082;28;20207;-76
2023/01/27 08:55:18;;;;;;;0.70;0.70;;;;;;;3.30;100.00;99362.63;5107620;28;20209;-77
2023/01/27 08:57:45;;;;;;;0.60;0.60;;;;;;;3.38;100.00;99370.56;5099607;28;20217;-78
2023/01/27 09:00:12;;;;;;;0.70;0.70;;;;;;;3.24;100.00;99357.31;5100032;28;20221;-78
2023/01/27 09:02:40;;;;;;;0.70;0.70;;;;;;;3.14;100.00;99368.06;5098754;28;20255;-76
2023/01/27 09:05:07;;;;;;;0.87;0.87;;;;;;;3.26;100.00;99371.03;5099761;28;20286;-76
2023/01/27 09:07:34;;;;;;;0.97;0.97;;;;;;;3.23;100.00;99358.13;5042148;28;20210;-75
2023/01/27 09:10:01;;;;;;;0.70;0.70;;;;;;;3.05;100.00;99339.63;5100456;28;20229;-75
2023/01/27 09:12:29;;;;;;;0.70;0.70;;;;;;;3.14;100.00;99355.25;5093261;28;20220;-73
2023/01/27 09:14:57;;;;;;;0.63;0.63;;;;;;;3.02;100.00;99333.53;5093259;28;20198;-77
2023/01/27 09:17:23;;;;;;;0.77;0.77;;;;;;;3.20;100.00;99350.34;5093666;28;20261;-77
2023/01/27 09:19:50;;;;;;;0.80;0.80;;;;;;;3.21;100.00;99315.38;5113298;28;20273;-76
2023/01/27 09:22:17;;;;;;;0.60;0.60;;;;;;;3.27;100.00;99351.41;5113094;28;20206;-77
2023/01/27 09:24:44;;;;;;;0.43;0.43;;;;;;;3.23;100.00;99340.22;5112198;28;20254;-77
2023/01/27 09:27:11;;;;;;;0.80;0.80;;;;;;;3.26;100.00;99360.78;5100353;28;20282;-76
2023/01/27 09:29:39;;;;;;;0.70;0.70;;;;;;;3.29;100.00;99348.06;5099307;28;20202;-76
2023/01/27 09:32:07;;;;;;;0.80;0.80;;;;;;;3.14;100.00;99356.97;5112888;28;20660;-76
2023/01/27 09:34:34;;;;;;;0.50;0.50;;;;;;;3.20;100.00;99360.59;5107311;28;20283;-79
2023/01/27 09:37:06;;;;;;;0.60;0.60;;;;;;;3.18;100.00;99351.97;5092479;28;20679;-76
2023/01/27 09:39:37;;;;;;;0.60;0.60;;;;;;;3.14;100.00;99359.53;5094755;28;20596;-77
2023/01/27 09:42:29;;;;;;;1.47;1.47;;;;;;;3.20;100.00;99365.72;5103562;28;20205;-75
2023/01/27 09:45:36;;;;;;;1.27;1.27;;;;;;;3.19;100.00;99358.84;5007786;28;20205;-76
2023/01/27 09:48:26;;;;;;;0.70;0.70;;;;;;;3.16;100.00;99353.63;4943098;29;20202;-74
2023/01/27 09:50:59;;;;;;;1.00;1.00;;;;;;;3.23;100.00;99350.44;4951209;29;20794;-74
2023/01/27 09:54:16;;;;;;;0.60;0.60;;;;;;;3.24;100.00;99347.06;4951326;29;20203;-75
2023/01/27 09:56:56;;;;;;;0.67;0.67;;;;;;;3.12;100.00;99353.47;4893889;29;20244;-75
2023/01/27 09:59:55;;;;;;;0.50;0.50;;;;;;;3.16;100.00;99348.50;4894202;29;20205;-76
2023/01/27 10:02:37;;;;;;;0.40;0.40;;;;;;;3.14;100.00;99354.41;4894341;29;20204;-77
2023/01/27 10:05:40;;;;;;;0.60;0.60;;;;;;;3.25;100.00;99353.91;4887102;29;20587;-77
2023/01/27 10:08:33;;;;;;;0.50;0.50;;;;;;;3.32;100.00;99342.16;4838731;29;20215;-78
2023/01/27 10:11:12;;;;;;;1.10;1.10;;;;;;;3.27;100.00;99336.94;4838704;29;20210;-78
2023/01/27 10:13:50;;;;;;;0.53;0.53;;;;;;;3.17;100.00;99326.34;4831675;29;20211;-76
2023/01/27 10:16:29;;;;;;;0.50;0.50;;;;;;;3.31;100.00;99310.59;4838674;29;20230;-77
2023/01/27 10:19:15;;;;;;;0.67;0.67;;;;;;;3.19;100.00;99328.13;4838782;29;20687;-76
2023/01/27 10:21:53;;;;;;;2.70;2.50;;;;;;;3.15;100.00;99321.16;4851299;29;20213;-75
2023/01/27 10:24:33;;;;;;;0.53;0.53;;;;;;;3.14;100.00;99327.09;4929156;29;20202;-75
2023/01/27 10:27:07;;;;;;;0.60;0.60;;;;;;;3.21;100.00;99326.47;4937806;28;20218;-75
2023/01/27 10:29:41;;;;;;;0.50;0.50;;;;;;;3.07;100.00;99307.22;4973231;28;20530;-75
2023/01/27 10:32:10;;;;;;;0.50;0.50;;;;;;;3.12;100.00;99321.06;5035355;28;20203;-75
2023/01/27 10:34:48;;;;;;;0.87;0.87;;;;;;;3.01;100.00;99322.41;5012179;28;20693;-77
2023/01/27 10:37:25;;;;;;;0.50;0.50;;;;;;;2.98;100.00;99318.06;5035623;28;20222;-76
2023/01/27 10:40:00;;;;;;;0.70;0.70;;;;;;;2.82;100.00;99305.56;5049233;28;20253;-75
2023/01/27 10:42:35;;;;;;;2.47;1.90;;;;;;;2.78;100.00;99295.19;5014646;28;20672;-75
2023/01/27 10:45:16;;;;;;;0.57;0.57;;;;;;;2.94;100.00;99320.47;5052534;28;20256;-76
2023/01/27 10:47:56;;;;;;;0.90;0.90;;;;;;;2.67;100.00;99299.09;5070983;28;20526;-76
2023/01/27 10:50:29;;;;;;;0.53;0.53;;;;;;;2.81;100.00;99324.31;5057127;28;20203;-78
2023/01/27 10:53:03;;;;;;;0.60;0.60;;;;;;;2.83;100.00;99315.00;5061590;28;20207;-78
2023/01/27 10:55:40;;;;;;;0.60;0.60;;;;;;;2.88;100.00;99316.03;5032565;28;20213;-78
2023/01/27 10:58:15;;;;;;;0.67;0.67;;;;;;;2.70;100.00;99314.53;5071033;28;20221;-81
2023/01/27 11:00:45;;;;;;;0.50;0.50;;;;;;;2.52;100.00;99273.00;5070920;28;20696;-77
2023/01/27 11:03:20;;;;;;;0.60;0.60;;;;;;;2.72;100.00;99312.88;5070848;28;20237;-79
2023/01/27 11:05:52;;;;;;;0.70;0.70;;;;;;;2.21;100.00;99219.94;5036886;28;20742;-77
2023/01/27 11:08:22;;;;;;;0.60;0.60;;;;;;;2.66;100.00;99317.81;5070235;28;20226;-77
2023/01/27 11:13:37;;;;;;;0.70;0.70;;;;;;;2.71;100.00;99306.91;5062334;28;20264;-77
2023/01/27 11:16:07;;;;;;;1.50;1.07;;;;;;;2.73;100.00;99295.03;5070699;28;20214;-78
2023/01/27 11:18:37;;;;;;;1.50;1.50;;;;;;;2.67;100.00;99309.34;5070583;28;20705;-78
2023/01/27 11:21:10;;;;;;;0.50;0.50;;;;;;;2.76;100.00;99314.75;5070457;28;20226;-75
2023/01/27 11:23:41;;;;;;;0.80;0.80;;;;;;;2.55;100.00;99308.91;5036451;28;20658;-76
2023/01/27 11:26:19;;;;;;;0.70;0.70;;;;;;;2.95;100.00;99286.38;5035472;28;20202;-74
2023/01/27 11:28:53;;;;;;;0.53;0.53;;;;;;;2.04;100.00;99211.69;5070677;28;20205;-75
2023/01/27 11:31:31;;;;;;;0.73;0.73;;;;;;;2.78;100.00;99300.31;5070517;28;20194;-76
2023/01/27 11:34:04;;;;;;;0.60;0.60;;;;;;;2.64;100.00;99304.97;5078238;28;20602;-74
2023/01/27 11:36:34;;;;;;;0.87;0.87;;;;;;;2.59;100.00;99305.63;5110898;28;20212;-74
2023/01/27 11:39:03;;;;;;;0.50;0.50;;;;;;;2.43;100.00;99300.00;5111133;28;20225;-76
2023/01/27 11:41:33;;;;;;;0.60;0.60;;;;;;;2.46;100.00;99305.19;5111112;28;20193;-75
2023/01/27 11:44:06;;;;;;;0.60;0.60;;;;;;;2.58;100.00;99309.00;5110895;28;20197;-74
2023/01/27 11:46:34;;;;;;;1.47;0.80;;;;;;;2.55;100.00;99298.66;5110943;28;20726;-75
2023/01/27 11:49:02;;;;;;;0.60;0.60;;;;;;;2.39;100.00;99280.22;5110970;28;20240;-76
2023/01/27 11:51:37;;;;;;;0.67;0.67;;;;;;;2.49;100.00;99304.47;5110921;28;20194;-77
2023/01/27 11:54:12;;;;;;;0.60;0.60;;;;;;;2.59;100.00;99306.50;5110972;28;20698;-74
2023/01/27 11:56:41;;;;;;;0.60;0.60;;;;;;;2.60;100.00;99312.50;5110730;28;20580;-77
2023/01/27 11:59:14;;;;;;;1.53;1.53;;;;;;;2.58;100.00;99278.31;5110749;28;20225;-87
2023/01/27 12:01:52;;;;;;;0.70;0.70;;;;;;;3.09;100.00;99300.47;5110992;28;20201;-78
2023/01/27 12:04:38;;;;;;;0.60;0.60;;;;;;;2.96;100.00;99306.03;5111033;28;20248;-75
2023/01/27 12:07:12;;;;;;;0.60;0.60;;;;;;;2.89;100.00;99311.78;5110694;28;20205;-80
2023/01/27 12:09:41;;;;;;;0.60;0.60;;;;;;;2.58;100.00;99278.31;5110885;28;20660;-77
2023/01/27 12:12:21;;;;;;;0.43;0.43;;;;;;;2.68;100.00;99318.72;5110658;28;20206;-75
2023/01/27 12:14:49;;;;;;;1.00;1.00;;;;;;;2.58;100.00;99320.09;5110799;28;20205;-77
2023/01/27 12:17:27;;;;;;;3.03;1.03;;;;;;;2.68;100.00;99317.03;5110522;28;20217;-75